Terminal Aerodrome Forecast
Issued by NWS Cleveland, OH

Home | Current Version | Previous Version | Graphics & Text | Print | Product List | Glossary On
Versions: 1 2 3 4 5 6 7 8 9 10 11 12 13 14 15 16 17 18 19 20 21 22
000
FTUS41 KCLE 281100
TAFMFD
TAF
KMFD 281139Z 2812/2912 29008KT P6SM VCSH OVC006
     FM281400 34012KT P6SM BKN018
     FM281800 34012G20KT P6SM BKN035
     FM290100 31006KT P6SM SCT030
     FM290600 25005KT P6SM SCT030=

USA.gov is the U.S. government's official web portal to all federal, state and local government web resources and services.